sensor_id;sensor_type;location;lat;lon;timestamp;P1;durP1;ratioP1;P2;durP2;ratioP2
7841;SDS011;3966;51.052;13.820;2022-11-11T00:00:00;10.40;;;4.68;;
7841;SDS011;3966;51.052;13.820;2022-11-11T00:02:26;11.13;;;3.70;;
7841;SDS011;3966;51.052;13.820;2022-11-11T00:04:52;8.60;;;3.92;;
7841;SDS011;3966;51.052;13.820;2022-11-11T00:07:17;10.73;;;4.10;;
7841;SDS011;3966;51.052;13.820;2022-11-11T00:09:43;8.93;;;3.78;;
7841;SDS011;3966;51.052;13.820;2022-11-11T00:12:08;11.20;;;4.38;;
7841;SDS011;3966;51.052;13.820;2022-11-11T00:14:34;14.23;;;3.58;;
7841;SDS011;3966;51.052;13.820;2022-11-11T00:16:59;11.20;;;4.05;;
7841;SDS011;3966;51.052;13.820;2022-11-11T00:19:43;12.70;;;4.05;;
7841;SDS011;3966;51.052;13.820;2022-11-11T00:22:27;17.17;;;4.60;;
7841;SDS011;3966;51.052;13.820;2022-11-11T00:25:12;9.38;;;4.35;;
7841;SDS011;3966;51.052;13.820;2022-11-11T00:27:41;9.40;;;4.35;;
7841;SDS011;3966;51.052;13.820;2022-11-11T00:30:07;11.88;;;3.88;;
7841;SDS011;3966;51.052;13.820;2022-11-11T00:32:33;8.23;;;4.10;;
7841;SDS011;3966;51.052;13.820;2022-11-11T00:34:59;13.00;;;4.00;;
7841;SDS011;3966;51.052;13.820;2022-11-11T00:37:44;9.30;;;3.70;;
7841;SDS011;3966;51.052;13.820;2022-11-11T00:40:12;8.38;;;3.20;;
7841;SDS011;3966;51.052;13.820;2022-11-11T00:42:39;8.07;;;3.70;;
7841;SDS011;3966;51.052;13.820;2022-11-11T00:45:07;14.10;;;4.18;;
7841;SDS011;3966;51.052;13.820;2022-11-11T00:47:35;9.55;;;4.10;;
7841;SDS011;3966;51.052;13.820;2022-11-11T00:50:20;13.57;;;4.63;;
7841;SDS011;3966;51.052;13.820;2022-11-11T00:53:12;7.53;;;3.58;;
7841;SDS011;3966;51.052;13.820;2022-11-11T00:55:43;9.48;;;3.67;;
7841;SDS011;3966;51.052;13.820;2022-11-11T00:58:08;10.85;;;3.70;;
7841;SDS011;3966;51.052;13.820;2022-11-11T01:00:34;7.05;;;4.18;;
7841;SDS011;3966;51.052;13.820;2022-11-11T01:02:59;11.38;;;4.13;;
7841;SDS011;3966;51.052;13.820;2022-11-11T01:05:25;7.80;;;3.85;;
7841;SDS011;3966;51.052;13.820;2022-11-11T01:07:51;8.88;;;4.13;;
7841;SDS011;3966;51.052;13.820;2022-11-11T01:10:17;10.77;;;4.15;;
7841;SDS011;3966;51.052;13.820;2022-11-11T01:13:02;7.78;;;3.45;;
7841;SDS011;3966;51.052;13.820;2022-11-11T01:15:35;9.95;;;4.28;;
7841;SDS011;3966;51.052;13.820;2022-11-11T01:18:01;12.65;;;3.58;;
7841;SDS011;3966;51.052;13.820;2022-11-11T01:20:27;9.60;;;3.90;;
7841;SDS011;3966;51.052;13.820;2022-11-11T01:22:52;5.82;;;3.25;;
7841;SDS011;3966;51.052;13.820;2022-11-11T01:25:18;6.82;;;3.58;;
7841;SDS011;3966;51.052;13.820;2022-11-11T01:27:43;9.18;;;3.45;;
7841;SDS011;3966;51.052;13.820;2022-11-11T01:30:09;8.77;;;2.95;;
7841;SDS011;3966;51.052;13.820;2022-11-11T01:32:37;6.82;;;3.47;;
7841;SDS011;3966;51.052;13.820;2022-11-11T01:35:04;8.77;;;3.67;;
7841;SDS011;3966;51.052;13.820;2022-11-11T01:37:31;8.55;;;3.58;;
7841;SDS011;3966;51.052;13.820;2022-11-11T01:39:57;8.52;;;3.50;;
7841;SDS011;3966;51.052;13.820;2022-11-11T01:42:23;10.70;;;2.97;;
7841;SDS011;3966;51.052;13.820;2022-11-11T01:44:48;8.02;;;2.80;;
7841;SDS011;3966;51.052;13.820;2022-11-11T01:47:14;7.38;;;3.45;;
7841;SDS011;3966;51.052;13.820;2022-11-11T01:49:53;7.45;;;3.40;;
7841;SDS011;3966;51.052;13.820;2022-11-11T01:54:53;4.78;;;2.85;;
7841;SDS011;3966;51.052;13.820;2022-11-11T01:57:26;6.20;;;2.67;;
7841;SDS011;3966;51.052;13.820;2022-11-11T02:02:31;7.78;;;2.88;;
7841;SDS011;3966;51.052;13.820;2022-11-11T02:05:02;5.70;;;2.90;;
7841;SDS011;3966;51.052;13.820;2022-11-11T02:07:47;3.80;;;2.75;;
7841;SDS011;3966;51.052;13.820;2022-11-11T02:10:13;5.28;;;2.40;;
7841;SDS011;3966;51.052;13.820;2022-11-11T02:12:41;5.55;;;3.00;;
7841;SDS011;3966;51.052;13.820;2022-11-11T02:15:25;4.60;;;2.65;;
7841;SDS011;3966;51.052;13.820;2022-11-11T02:17:50;7.30;;;2.85;;
7841;SDS011;3966;51.052;13.820;2022-11-11T02:20:26;8.02;;;3.08;;
7841;SDS011;3966;51.052;13.820;2022-11-11T02:22:59;6.45;;;3.13;;
7841;SDS011;3966;51.052;13.820;2022-11-11T02:25:30;7.88;;;3.00;;
7841;SDS011;3966;51.052;13.820;2022-11-11T02:27:58;11.68;;;3.35;;
7841;SDS011;3966;51.052;13.820;2022-11-11T02:30:27;7.93;;;3.28;;
7841;SDS011;3966;51.052;13.820;2022-11-11T02:32:53;8.52;;;3.17;;
7841;SDS011;3966;51.052;13.820;2022-11-11T02:35:20;6.28;;;3.15;;
7841;SDS011;3966;51.052;13.820;2022-11-11T02:37:55;5.57;;;2.75;;
7841;SDS011;3966;51.052;13.820;2022-11-11T02:40:32;10.68;;;3.17;;
7841;SDS011;3966;51.052;13.820;2022-11-11T02:43:24;7.88;;;2.83;;
7841;SDS011;3966;51.052;13.820;2022-11-11T02:45:50;7.95;;;3.22;;
7841;SDS011;3966;51.052;13.820;2022-11-11T02:48:15;10.50;;;3.45;;
7841;SDS011;3966;51.052;13.820;2022-11-11T02:50:41;8.10;;;3.38;;
7841;SDS011;3966;51.052;13.820;2022-11-11T02:53:06;5.38;;;2.88;;
7841;SDS011;3966;51.052;13.820;2022-11-11T02:55:32;3.55;;;2.72;;
7841;SDS011;3966;51.052;13.820;2022-11-11T02:57:57;7.65;;;3.13;;
7841;SDS011;3966;51.052;13.820;2022-11-11T03:00:23;6.53;;;3.05;;
7841;SDS011;3966;51.052;13.820;2022-11-11T03:02:48;10.00;;;3.05;;
7841;SDS011;3966;51.052;13.820;2022-11-11T03:05:14;8.10;;;3.08;;
7841;SDS011;3966;51.052;13.820;2022-11-11T03:07:40;10.13;;;3.53;;
7841;SDS011;3966;51.052;13.820;2022-11-11T03:10:05;7.68;;;2.85;;
7841;SDS011;3966;51.052;13.820;2022-11-11T03:12:31;8.48;;;3.15;;
7841;SDS011;3966;51.052;13.820;2022-11-11T03:14:57;4.78;;;2.88;;
7841;SDS011;3966;51.052;13.820;2022-11-11T03:17:22;8.60;;;3.28;;
7841;SDS011;3966;51.052;13.820;2022-11-11T03:20:03;7.88;;;3.15;;
7841;SDS011;3966;51.052;13.820;2022-11-11T03:22:58;8.75;;;3.83;;
7841;SDS011;3966;51.052;13.820;2022-11-11T03:25:28;6.82;;;2.75;;
7841;SDS011;3966;51.052;13.820;2022-11-11T03:28:04;7.35;;;3.17;;
7841;SDS011;3966;51.052;13.820;2022-11-11T03:30:37;7.97;;;3.20;;
7841;SDS011;3966;51.052;13.820;2022-11-11T03:33:04;7.95;;;2.85;;
7841;SDS011;3966;51.052;13.820;2022-11-11T03:35:30;9.55;;;3.15;;
7841;SDS011;3966;51.052;13.820;2022-11-11T03:37:56;4.53;;;3.17;;
7841;SDS011;3966;51.052;13.820;2022-11-11T03:40:40;9.73;;;3.25;;
7841;SDS011;3966;51.052;13.820;2022-11-11T03:43:10;8.48;;;2.90;;
7841;SDS011;3966;51.052;13.820;2022-11-11T03:45:37;8.18;;;2.92;;
7841;SDS011;3966;51.052;13.820;2022-11-11T03:48:02;5.07;;;2.97;;
7841;SDS011;3966;51.052;13.820;2022-11-11T03:50:29;7.05;;;2.95;;
7841;SDS011;3966;51.052;13.820;2022-11-11T03:52:55;8.00;;;3.17;;
7841;SDS011;3966;51.052;13.820;2022-11-11T03:55:20;10.20;;;3.22;;
7841;SDS011;3966;51.052;13.820;2022-11-11T03:57:46;8.32;;;2.83;;
7841;SDS011;3966;51.052;13.820;2022-11-11T04:00:13;7.80;;;3.20;;
7841;SDS011;3966;51.052;13.820;2022-11-11T04:02:46;5.95;;;3.53;;
7841;SDS011;3966;51.052;13.820;2022-11-11T04:05:31;5.78;;;3.05;;
7841;SDS011;3966;51.052;13.820;2022-11-11T04:08:16;4.72;;;2.65;;
7841;SDS011;3966;51.052;13.820;2022-11-11T04:11:02;5.43;;;2.90;;
7841;SDS011;3966;51.052;13.820;2022-11-11T04:13:36;6.63;;;2.90;;
7841;SDS011;3966;51.052;13.820;2022-11-11T04:16:27;4.15;;;2.78;;
7841;SDS011;3966;51.052;13.820;2022-11-11T04:18:52;6.50;;;2.83;;
7841;SDS011;3966;51.052;13.820;2022-11-11T04:21:37;9.32;;;2.92;;
7841;SDS011;3966;51.052;13.820;2022-11-11T04:24:09;7.72;;;3.10;;
7841;SDS011;3966;51.052;13.820;2022-11-11T04:26:54;6.50;;;2.60;;
7841;SDS011;3966;51.052;13.820;2022-11-11T04:29:21;6.57;;;3.50;;
7841;SDS011;3966;51.052;13.820;2022-11-11T04:32:05;10.93;;;2.80;;
7841;SDS011;3966;51.052;13.820;2022-11-11T04:34:52;7.53;;;2.75;;
7841;SDS011;3966;51.052;13.820;2022-11-11T04:37:19;6.43;;;2.97;;
7841;SDS011;3966;51.052;13.820;2022-11-11T04:39:46;6.60;;;2.75;;
7841;SDS011;3966;51.052;13.820;2022-11-11T04:42:30;5.18;;;3.00;;
7841;SDS011;3966;51.052;13.820;2022-11-11T04:44:57;7.45;;;2.90;;
7841;SDS011;3966;51.052;13.820;2022-11-11T04:47:52;5.40;;;2.95;;
7841;SDS011;3966;51.052;13.820;2022-11-11T04:50:19;5.20;;;2.65;;
7841;SDS011;3966;51.052;13.820;2022-11-11T04:52:45;6.10;;;2.95;;
7841;SDS011;3966;51.052;13.820;2022-11-11T04:55:10;10.93;;;3.03;;
7841;SDS011;3966;51.052;13.820;2022-11-11T04:57:55;7.75;;;3.00;;
7841;SDS011;3966;51.052;13.820;2022-11-11T05:00:20;10.55;;;3.13;;
7841;SDS011;3966;51.052;13.820;2022-11-11T05:02:46;7.45;;;2.75;;
7841;SDS011;3966;51.052;13.820;2022-11-11T05:05:30;7.63;;;2.55;;
7841;SDS011;3966;51.052;13.820;2022-11-11T05:08:15;4.38;;;2.67;;
7841;SDS011;3966;51.052;13.820;2022-11-11T05:10:59;9.10;;;3.25;;
7841;SDS011;3966;51.052;13.820;2022-11-11T05:13:24;6.45;;;2.85;;
7841;SDS011;3966;51.052;13.820;2022-11-11T05:16:12;9.65;;;2.53;;
7841;SDS011;3966;51.052;13.820;2022-11-11T05:18:59;9.27;;;2.70;;
7841;SDS011;3966;51.052;13.820;2022-11-11T05:21:43;8.73;;;2.90;;
7841;SDS011;3966;51.052;13.820;2022-11-11T05:24:08;6.03;;;3.15;;
7841;SDS011;3966;51.052;13.820;2022-11-11T05:26:52;5.40;;;2.67;;
7841;SDS011;3966;51.052;13.820;2022-11-11T05:29:18;11.02;;;3.55;;
7841;SDS011;3966;51.052;13.820;2022-11-11T05:31:43;4.60;;;3.00;;
7841;SDS011;3966;51.052;13.820;2022-11-11T05:34:09;9.38;;;3.10;;
7841;SDS011;3966;51.052;13.820;2022-11-11T05:36:34;9.27;;;3.38;;
7841;SDS011;3966;51.052;13.820;2022-11-11T05:39:00;9.20;;;3.72;;
7841;SDS011;3966;51.052;13.820;2022-11-11T05:41:25;13.73;;;3.67;;
7841;SDS011;3966;51.052;13.820;2022-11-11T05:43:51;7.53;;;3.70;;
7841;SDS011;3966;51.052;13.820;2022-11-11T05:46:16;6.13;;;3.30;;
7841;SDS011;3966;51.052;13.820;2022-11-11T05:48:42;9.95;;;3.78;;
7841;SDS011;3966;51.052;13.820;2022-11-11T05:51:27;6.80;;;3.33;;
7841;SDS011;3966;51.052;13.820;2022-11-11T05:53:54;8.75;;;3.22;;
7841;SDS011;3966;51.052;13.820;2022-11-11T05:56:21;7.55;;;3.47;;
7841;SDS011;3966;51.052;13.820;2022-11-11T05:58:46;9.10;;;3.67;;
7841;SDS011;3966;51.052;13.820;2022-11-11T06:01:12;8.38;;;4.07;;
7841;SDS011;3966;51.052;13.820;2022-11-11T06:03:37;8.90;;;4.10;;
7841;SDS011;3966;51.052;13.820;2022-11-11T06:06:03;13.38;;;5.03;;
7841;SDS011;3966;51.052;13.820;2022-11-11T06:08:29;12.52;;;5.35;;
7841;SDS011;3966;51.052;13.820;2022-11-11T06:10:54;12.55;;;5.32;;
7841;SDS011;3966;51.052;13.820;2022-11-11T06:13:20;12.48;;;5.60;;
7841;SDS011;3966;51.052;13.820;2022-11-11T06:15:45;10.15;;;5.43;;
7841;SDS011;3966;51.052;13.820;2022-11-11T06:18:11;15.07;;;5.97;;
7841;SDS011;3966;51.052;13.820;2022-11-11T06:20:36;11.05;;;6.00;;
7841;SDS011;3966;51.052;13.820;2022-11-11T06:23:02;10.40;;;5.88;;
7841;SDS011;3966;51.052;13.820;2022-11-11T06:25:29;14.23;;;6.72;;
7841;SDS011;3966;51.052;13.820;2022-11-11T06:28:15;16.02;;;6.82;;
7841;SDS011;3966;51.052;13.820;2022-11-11T06:30:41;15.57;;;7.93;;
7841;SDS011;3966;51.052;13.820;2022-11-11T06:33:08;12.73;;;7.40;;
7841;SDS011;3966;51.052;13.820;2022-11-11T06:35:34;11.00;;;5.90;;
7841;SDS011;3966;51.052;13.820;2022-11-11T06:38:01;19.75;;;7.25;;
7841;SDS011;3966;51.052;13.820;2022-11-11T06:40:28;17.70;;;7.57;;
7841;SDS011;3966;51.052;13.820;2022-11-11T06:42:54;17.38;;;6.78;;
7841;SDS011;3966;51.052;13.820;2022-11-11T06:45:24;16.65;;;5.47;;
7841;SDS011;3966;51.052;13.820;2022-11-11T06:47:51;17.95;;;6.10;;
7841;SDS011;3966;51.052;13.820;2022-11-11T06:50:17;12.20;;;6.07;;
7841;SDS011;3966;51.052;13.820;2022-11-11T06:52:43;22.63;;;6.28;;
7841;SDS011;3966;51.052;13.820;2022-11-11T06:55:09;14.82;;;7.38;;
7841;SDS011;3966;51.052;13.820;2022-11-11T06:57:34;15.57;;;6.63;;
7841;SDS011;3966;51.052;13.820;2022-11-11T07:00:00;13.80;;;6.78;;
7841;SDS011;3966;51.052;13.820;2022-11-11T07:02:30;18.98;;;7.28;;
7841;SDS011;3966;51.052;13.820;2022-11-11T07:04:55;16.17;;;7.00;;
7841;SDS011;3966;51.052;13.820;2022-11-11T07:07:21;21.50;;;7.30;;
7841;SDS011;3966;51.052;13.820;2022-11-11T07:09:46;15.52;;;6.35;;
7841;SDS011;3966;51.052;13.820;2022-11-11T07:12:12;13.45;;;6.70;;
7841;SDS011;3966;51.052;13.820;2022-11-11T07:14:38;12.45;;;6.43;;
7841;SDS011;3966;51.052;13.820;2022-11-11T07:17:03;13.32;;;6.50;;
7841;SDS011;3966;51.052;13.820;2022-11-11T07:19:29;13.60;;;6.35;;
7841;SDS011;3966;51.052;13.820;2022-11-11T07:21:55;16.13;;;6.72;;
7841;SDS011;3966;51.052;13.820;2022-11-11T07:24:21;11.30;;;6.05;;
7841;SDS011;3966;51.052;13.820;2022-11-11T07:26:46;14.80;;;7.05;;
7841;SDS011;3966;51.052;13.820;2022-11-11T07:29:12;11.55;;;6.70;;
7841;SDS011;3966;51.052;13.820;2022-11-11T07:31:39;16.00;;;6.85;;
7841;SDS011;3966;51.052;13.820;2022-11-11T07:34:05;16.40;;;7.10;;
7841;SDS011;3966;51.052;13.820;2022-11-11T07:36:30;13.25;;;6.65;;
7841;SDS011;3966;51.052;13.820;2022-11-11T07:38:56;19.67;;;7.43;;
7841;SDS011;3966;51.052;13.820;2022-11-11T07:41:21;18.20;;;7.13;;
7841;SDS011;3966;51.052;13.820;2022-11-11T07:43:47;13.75;;;7.20;;
7841;SDS011;3966;51.052;13.820;2022-11-11T07:46:12;15.98;;;6.72;;
7841;SDS011;3966;51.052;13.820;2022-11-11T07:48:38;13.80;;;7.25;;
7841;SDS011;3966;51.052;13.820;2022-11-11T07:51:04;23.20;;;7.32;;
7841;SDS011;3966;51.052;13.820;2022-11-11T07:53:30;10.73;;;6.07;;
7841;SDS011;3966;51.052;13.820;2022-11-11T07:55:56;18.88;;;8.27;;
7841;SDS011;3966;51.052;13.820;2022-11-11T07:58:21;15.10;;;6.35;;
7841;SDS011;3966;51.052;13.820;2022-11-11T08:00:47;18.52;;;7.05;;
7841;SDS011;3966;51.052;13.820;2022-11-11T08:03:12;17.45;;;7.30;;
7841;SDS011;3966;51.052;13.820;2022-11-11T08:05:38;13.35;;;5.18;;
7841;SDS011;3966;51.052;13.820;2022-11-11T08:08:04;13.23;;;5.55;;
7841;SDS011;3966;51.052;13.820;2022-11-11T08:10:30;12.77;;;6.07;;
7841;SDS011;3966;51.052;13.820;2022-11-11T08:12:56;14.35;;;6.43;;
7841;SDS011;3966;51.052;13.820;2022-11-11T08:15:40;11.57;;;5.22;;
7841;SDS011;3966;51.052;13.820;2022-11-11T08:18:06;10.48;;;5.75;;
7841;SDS011;3966;51.052;13.820;2022-11-11T08:20:32;11.27;;;5.65;;
7841;SDS011;3966;51.052;13.820;2022-11-11T08:22:58;11.23;;;5.35;;
7841;SDS011;3966;51.052;13.820;2022-11-11T08:25:24;18.20;;;5.50;;
7841;SDS011;3966;51.052;13.820;2022-11-11T08:27:59;13.25;;;5.65;;
7841;SDS011;3966;51.052;13.820;2022-11-11T08:30:28;11.00;;;5.13;;
7841;SDS011;3966;51.052;13.820;2022-11-11T08:32:57;17.10;;;5.38;;
7841;SDS011;3966;51.052;13.820;2022-11-11T08:35:27;12.32;;;6.03;;
7841;SDS011;3966;51.052;13.820;2022-11-11T08:37:53;13.95;;;5.35;;
7841;SDS011;3966;51.052;13.820;2022-11-11T08:40:19;9.68;;;5.00;;
7841;SDS011;3966;51.052;13.820;2022-11-11T08:42:45;9.73;;;4.75;;
7841;SDS011;3966;51.052;13.820;2022-11-11T08:45:11;11.82;;;6.03;;
7841;SDS011;3966;51.052;13.820;2022-11-11T08:47:37;11.65;;;6.05;;
7841;SDS011;3966;51.052;13.820;2022-11-11T08:50:03;12.20;;;5.25;;
7841;SDS011;3966;51.052;13.820;2022-11-11T08:52:30;12.27;;;5.22;;
7841;SDS011;3966;51.052;13.820;2022-11-11T08:54:56;12.02;;;5.00;;
7841;SDS011;3966;51.052;13.820;2022-11-11T08:57:24;10.98;;;4.85;;
7841;SDS011;3966;51.052;13.820;2022-11-11T08:59:49;9.52;;;5.45;;
7841;SDS011;3966;51.052;13.820;2022-11-11T09:02:15;11.35;;;5.25;;
7841;SDS011;3966;51.052;13.820;2022-11-11T09:04:41;14.65;;;5.40;;
7841;SDS011;3966;51.052;13.820;2022-11-11T09:07:07;16.70;;;5.57;;
7841;SDS011;3966;51.052;13.820;2022-11-11T09:09:33;9.15;;;5.47;;
7841;SDS011;3966;51.052;13.820;2022-11-11T09:11:59;12.10;;;5.10;;
7841;SDS011;3966;51.052;13.820;2022-11-11T09:14:25;13.98;;;4.78;;
7841;SDS011;3966;51.052;13.820;2022-11-11T09:19:28;12.20;;;5.25;;
7841;SDS011;3966;51.052;13.820;2022-11-11T09:21:54;9.18;;;4.82;;
7841;SDS011;3966;51.052;13.820;2022-11-11T09:24:19;10.98;;;5.20;;
7841;SDS011;3966;51.052;13.820;2022-11-11T09:26:48;11.07;;;5.70;;
7841;SDS011;3966;51.052;13.820;2022-11-11T09:29:14;10.82;;;5.50;;
7841;SDS011;3966;51.052;13.820;2022-11-11T09:31:40;13.10;;;5.63;;
7841;SDS011;3966;51.052;13.820;2022-11-11T09:34:06;12.75;;;5.75;;
7841;SDS011;3966;51.052;13.820;2022-11-11T09:36:31;9.60;;;5.00;;
7841;SDS011;3966;51.052;13.820;2022-11-11T09:38:57;8.73;;;4.63;;
7841;SDS011;3966;51.052;13.820;2022-11-11T09:41:26;11.10;;;5.35;;
7841;SDS011;3966;51.052;13.820;2022-11-11T09:44:02;11.18;;;5.10;;
7841;SDS011;3966;51.052;13.820;2022-11-11T09:51:54;7.97;;;4.90;;
7841;SDS011;3966;51.052;13.820;2022-11-11T09:54:42;11.68;;;4.85;;
7841;SDS011;3966;51.052;13.820;2022-11-11T10:00:00;9.27;;;4.43;;
7841;SDS011;3966;51.052;13.820;2022-11-11T10:02:34;7.78;;;4.50;;
7841;SDS011;3966;51.052;13.820;2022-11-11T10:05:10;9.27;;;4.60;;
7841;SDS011;3966;51.052;13.820;2022-11-11T10:07:41;12.23;;;4.35;;
7841;SDS011;3966;51.052;13.820;2022-11-11T10:10:28;7.93;;;4.28;;
7841;SDS011;3966;51.052;13.820;2022-11-11T10:13:11;7.38;;;4.20;;
7841;SDS011;3966;51.052;13.820;2022-11-11T10:15:52;10.02;;;3.85;;
7841;SDS011;3966;51.052;13.820;2022-11-11T10:21:50;8.70;;;4.20;;
7841;SDS011;3966;51.052;13.820;2022-11-11T10:24:28;7.20;;;3.90;;
7841;SDS011;3966;51.052;13.820;2022-11-11T10:26:58;7.03;;;3.65;;
7841;SDS011;3966;51.052;13.820;2022-11-11T10:29:29;8.85;;;4.40;;
7841;SDS011;3966;51.052;13.820;2022-11-11T10:34:34;11.73;;;4.45;;
7841;SDS011;3966;51.052;13.820;2022-11-11T10:37:01;6.05;;;3.83;;
7841;SDS011;3966;51.052;13.820;2022-11-11T10:42:26;9.85;;;3.67;;
7841;SDS011;3966;51.052;13.820;2022-11-11T10:44:53;6.82;;;3.50;;
7841;SDS011;3966;51.052;13.820;2022-11-11T10:50:13;9.25;;;4.13;;
7841;SDS011;3966;51.052;13.820;2022-11-11T10:52:46;6.90;;;4.38;;
7841;SDS011;3966;51.052;13.820;2022-11-11T10:55:19;7.82;;;4.20;;
7841;SDS011;3966;51.052;13.820;2022-11-11T10:57:54;7.38;;;4.00;;
7841;SDS011;3966;51.052;13.820;2022-11-11T11:00:23;5.30;;;3.08;;
7841;SDS011;3966;51.052;13.820;2022-11-11T11:08:14;7.65;;;4.07;;
7841;SDS011;3966;51.052;13.820;2022-11-11T11:10:57;10.68;;;4.68;;
7841;SDS011;3966;51.052;13.820;2022-11-11T11:13:33;7.72;;;3.92;;
7841;SDS011;3966;51.052;13.820;2022-11-11T11:16:09;8.75;;;4.10;;
7841;SDS011;3966;51.052;13.820;2022-11-11T11:18:40;8.75;;;4.13;;
7841;SDS011;3966;51.052;13.820;2022-11-11T11:21:07;9.23;;;4.03;;
7841;SDS011;3966;51.052;13.820;2022-11-11T11:23:42;7.28;;;3.70;;
7841;SDS011;3966;51.052;13.820;2022-11-11T11:26:09;9.00;;;4.40;;
7841;SDS011;3966;51.052;13.820;2022-11-11T11:28:56;6.53;;;4.07;;
7841;SDS011;3966;51.052;13.820;2022-11-11T11:31:34;10.18;;;4.30;;
7841;SDS011;3966;51.052;13.820;2022-11-11T11:34:01;5.53;;;4.13;;
7841;SDS011;3966;51.052;13.820;2022-11-11T11:36:28;8.55;;;4.45;;
7841;SDS011;3966;51.052;13.820;2022-11-11T11:38:53;6.93;;;4.20;;
7841;SDS011;3966;51.052;13.820;2022-11-11T11:41:38;11.80;;;4.63;;
7841;SDS011;3966;51.052;13.820;2022-11-11T11:44:24;10.15;;;4.65;;
7841;SDS011;3966;51.052;13.820;2022-11-11T11:46:51;6.20;;;3.78;;
7841;SDS011;3966;51.052;13.820;2022-11-11T11:52:46;7.82;;;4.50;;
7841;SDS011;3966;51.052;13.820;2022-11-11T11:55:27;9.55;;;3.72;;
7841;SDS011;3966;51.052;13.820;2022-11-11T12:01:00;7.28;;;4.15;;
7841;SDS011;3966;51.052;13.820;2022-11-11T12:06:27;7.80;;;4.15;;
7841;SDS011;3966;51.052;13.820;2022-11-11T12:15:19;7.47;;;4.07;;
7841;SDS011;3966;51.052;13.820;2022-11-11T12:17:55;5.57;;;4.13;;
7841;SDS011;3966;51.052;13.820;2022-11-11T12:26:04;5.93;;;3.95;;
7841;SDS011;3966;51.052;13.820;2022-11-11T12:28:42;9.32;;;4.07;;
7841;SDS011;3966;51.052;13.820;2022-11-11T12:34:45;8.80;;;4.30;;
7841;SDS011;3966;51.052;13.820;2022-11-11T12:40:20;8.85;;;4.43;;
7841;SDS011;3966;51.052;13.820;2022-11-11T12:51:32;9.13;;;4.13;;
7841;SDS011;3966;51.052;13.820;2022-11-11T12:54:24;5.10;;;4.30;;
7841;SDS011;3966;51.052;13.820;2022-11-11T12:57:20;6.32;;;3.67;;
7841;SDS011;3966;51.052;13.820;2022-11-11T13:00:20;8.48;;;4.68;;
7841;SDS011;3966;51.052;13.820;2022-11-11T13:08:18;8.73;;;4.32;;
7841;SDS011;3966;51.052;13.820;2022-11-11T13:16:43;8.27;;;4.07;;
7841;SDS011;3966;51.052;13.820;2022-11-11T13:22:06;7.50;;;4.63;;
7841;SDS011;3966;51.052;13.820;2022-11-11T13:24:38;9.57;;;3.83;;
7841;SDS011;3966;51.052;13.820;2022-11-11T13:27:05;9.13;;;4.30;;
7841;SDS011;3966;51.052;13.820;2022-11-11T13:30:00;8.02;;;4.00;;
7841;SDS011;3966;51.052;13.820;2022-11-11T13:32:46;10.32;;;3.80;;
7841;SDS011;3966;51.052;13.820;2022-11-11T13:35:20;10.43;;;4.40;;
7841;SDS011;3966;51.052;13.820;2022-11-11T13:37:51;8.38;;;3.92;;
7841;SDS011;3966;51.052;13.820;2022-11-11T13:40:25;10.45;;;4.18;;
7841;SDS011;3966;51.052;13.820;2022-11-11T13:42:58;7.38;;;3.22;;
7841;SDS011;3966;51.052;13.820;2022-11-11T13:48:01;8.90;;;3.33;;
7841;SDS011;3966;51.052;13.820;2022-11-11T13:50:29;14.68;;;4.07;;
7841;SDS011;3966;51.052;13.820;2022-11-11T13:53:01;9.98;;;3.92;;
7841;SDS011;3966;51.052;13.820;2022-11-11T13:55:30;8.95;;;3.80;;
7841;SDS011;3966;51.052;13.820;2022-11-11T13:58:00;7.78;;;3.40;;
7841;SDS011;3966;51.052;13.820;2022-11-11T14:00:32;8.48;;;3.58;;
7841;SDS011;3966;51.052;13.820;2022-11-11T14:05:41;8.23;;;3.95;;
7841;SDS011;3966;51.052;13.820;2022-11-11T14:08:06;16.98;;;4.30;;
7841;SDS011;3966;51.052;13.820;2022-11-11T14:15:46;9.25;;;4.53;;
7841;SDS011;3966;51.052;13.820;2022-11-11T14:20:46;18.45;;;6.68;;
7841;SDS011;3966;51.052;13.820;2022-11-11T14:28:31;18.33;;;7.80;;
7841;SDS011;3966;51.052;13.820;2022-11-11T14:31:24;17.60;;;6.40;;
7841;SDS011;3966;51.052;13.820;2022-11-11T14:34:05;14.98;;;5.93;;
7841;SDS011;3966;51.052;13.820;2022-11-11T14:42:15;8.20;;;4.32;;
7841;SDS011;3966;51.052;13.820;2022-11-11T14:45:02;11.60;;;4.43;;
7841;SDS011;3966;51.052;13.820;2022-11-11T14:47:34;9.05;;;4.20;;
7841;SDS011;3966;51.052;13.820;2022-11-11T14:50:39;10.10;;;4.68;;
7841;SDS011;3966;51.052;13.820;2022-11-11T14:52:52;8.43;;;4.63;;
7841;SDS011;3966;51.052;13.820;2022-11-11T15:03:41;7.15;;;4.50;;
7841;SDS011;3966;51.052;13.820;2022-11-11T15:06:16;11.23;;;4.88;;
7841;SDS011;3966;51.052;13.820;2022-11-11T15:08:46;8.18;;;4.63;;
7841;SDS011;3966;51.052;13.820;2022-11-11T15:11:35;10.75;;;4.82;;
7841;SDS011;3966;51.052;13.820;2022-11-11T15:22:33;10.07;;;4.88;;
7841;SDS011;3966;51.052;13.820;2022-11-11T15:27:54;8.07;;;5.18;;
7841;SDS011;3966;51.052;13.820;2022-11-11T15:33:24;9.68;;;4.38;;
7841;SDS011;3966;51.052;13.820;2022-11-11T15:36:07;12.68;;;5.35;;
7841;SDS011;3966;51.052;13.820;2022-11-11T15:38:40;11.10;;;5.68;;
7841;SDS011;3966;51.052;13.820;2022-11-11T15:41:10;9.02;;;4.70;;
7841;SDS011;3966;51.052;13.820;2022-11-11T15:46:24;12.43;;;5.85;;
7841;SDS011;3966;51.052;13.820;2022-11-11T15:48:52;12.10;;;5.30;;
7841;SDS011;3966;51.052;13.820;2022-11-11T15:53:46;12.00;;;5.68;;
7841;SDS011;3966;51.052;13.820;2022-11-11T15:56:29;10.63;;;5.47;;
7841;SDS011;3966;51.052;13.820;2022-11-11T15:58:56;12.18;;;5.03;;
7841;SDS011;3966;51.052;13.820;2022-11-11T16:01:24;9.70;;;4.88;;
7841;SDS011;3966;51.052;13.820;2022-11-11T16:03:52;11.40;;;6.60;;
7841;SDS011;3966;51.052;13.820;2022-11-11T16:06:18;13.90;;;5.63;;
7841;SDS011;3966;51.052;13.820;2022-11-11T16:08:45;11.55;;;6.35;;
7841;SDS011;3966;51.052;13.820;2022-11-11T16:11:13;10.65;;;5.63;;
7841;SDS011;3966;51.052;13.820;2022-11-11T16:18:50;14.85;;;6.20;;
7841;SDS011;3966;51.052;13.820;2022-11-11T16:21:18;14.23;;;5.70;;
7841;SDS011;3966;51.052;13.820;2022-11-11T16:23:49;14.38;;;6.13;;
7841;SDS011;3966;51.052;13.820;2022-11-11T16:26:16;13.93;;;6.13;;
7841;SDS011;3966;51.052;13.820;2022-11-11T16:28:51;11.88;;;5.97;;
7841;SDS011;3966;51.052;13.820;2022-11-11T16:33:46;12.40;;;6.25;;
7841;SDS011;3966;51.052;13.820;2022-11-11T16:36:12;16.52;;;6.18;;
7841;SDS011;3966;51.052;13.820;2022-11-11T16:38:38;19.00;;;7.30;;
7841;SDS011;3966;51.052;13.820;2022-11-11T16:41:04;15.73;;;7.60;;
7841;SDS011;3966;51.052;13.820;2022-11-11T16:43:51;15.02;;;6.85;;
7841;SDS011;3966;51.052;13.820;2022-11-11T16:52:13;18.13;;;8.63;;
7841;SDS011;3966;51.052;13.820;2022-11-11T16:54:49;17.42;;;8.00;;
7841;SDS011;3966;51.052;13.820;2022-11-11T16:57:18;20.02;;;9.30;;
7841;SDS011;3966;51.052;13.820;2022-11-11T16:59:49;15.23;;;7.50;;
7841;SDS011;3966;51.052;13.820;2022-11-11T17:02:21;15.40;;;8.38;;
7841;SDS011;3966;51.052;13.820;2022-11-11T17:04:50;19.48;;;8.30;;
7841;SDS011;3966;51.052;13.820;2022-11-11T17:07:50;15.60;;;7.85;;
7841;SDS011;3966;51.052;13.820;2022-11-11T17:12:37;25.45;;;10.38;;
7841;SDS011;3966;51.052;13.820;2022-11-11T17:15:07;18.13;;;8.43;;
7841;SDS011;3966;51.052;13.820;2022-11-11T17:17:38;19.20;;;10.00;;
7841;SDS011;3966;51.052;13.820;2022-11-11T17:22:35;18.38;;;8.82;;
7841;SDS011;3966;51.052;13.820;2022-11-11T17:25:01;26.08;;;10.75;;
7841;SDS011;3966;51.052;13.820;2022-11-11T17:27:30;16.98;;;8.73;;
7841;SDS011;3966;51.052;13.820;2022-11-11T17:29:56;20.33;;;9.63;;
7841;SDS011;3966;51.052;13.820;2022-11-11T17:32:22;15.48;;;8.50;;
7841;SDS011;3966;51.052;13.820;2022-11-11T17:34:47;17.95;;;8.70;;
7841;SDS011;3966;51.052;13.820;2022-11-11T17:37:13;20.52;;;10.60;;
7841;SDS011;3966;51.052;13.820;2022-11-11T17:39:38;19.15;;;10.77;;
7841;SDS011;3966;51.052;13.820;2022-11-11T17:42:07;23.63;;;10.15;;
7841;SDS011;3966;51.052;13.820;2022-11-11T17:44:32;20.40;;;9.50;;
7841;SDS011;3966;51.052;13.820;2022-11-11T17:46:58;27.98;;;11.80;;
7841;SDS011;3966;51.052;13.820;2022-11-11T17:49:23;18.80;;;9.07;;